NOZ26F ENGM-EDDH
Flight info
| Callsign | NOZ26F |
|---|---|
| Flight time | 1h 7m |
| Altitude | 33000 |
| Route | VIPPA1C/19L VIPPA DCT AAL DCT LUTUS/N0446F340 P615 ALS M852 ALASA/N0449F350 M852 EKERN/N0396F230 T905 BOGMU BOGMU3N |
| Aircraft | B738/M-SDE2E3FGHIRWXY/LB1 |
Departure
| Time | 2026-05-07 12:12 |
|---|---|
| Airport | Oslo-Gardermoen International Airport (ENGM) |
Arrival
| Time | 2026-05-07 13:20 |
|---|---|
| Airport | Hamburg Helmut Schmidt Airport (EDDH) |
| Time | Latitude | Longitude | Altitude | Speed | Heading |
|---|---|---|---|---|---|
| 2026-05-07 11:55 | 60.19641 | 11.10210 | 681 ft | 0 kts | 287° |
| 2026-05-07 12:04 | 60.19637 | 11.10238 | 679 ft | 4 kts | 286° |
| 2026-05-07 12:04 | 60.19631 | 11.10284 | 677 ft | 1 kts | 286° |
| 2026-05-07 12:04 | 60.19631 | 11.10285 | 677 ft | 0 kts | 286° |
| 2026-05-07 12:07 | 60.19631 | 11.10284 | 677 ft | 0 kts | 287° |
| 2026-05-07 12:07 | 60.19637 | 11.10279 | 678 ft | 2 kts | 340° |
| 2026-05-07 12:07 | 60.19655 | 11.10316 | 679 ft | 6 kts | 71° |
| 2026-05-07 12:07 | 60.19667 | 11.10428 | 678 ft | 10 kts | 60° |
| 2026-05-07 12:08 | 60.19736 | 11.10491 | 681 ft | 12 kts | 17° |
| 2026-05-07 12:08 | 60.19819 | 11.10538 | 681 ft | 13 kts | 14° |
| 2026-05-07 12:08 | 60.19903 | 11.10585 | 682 ft | 13 kts | 17° |
| 2026-05-07 12:08 | 60.19945 | 11.10713 | 683 ft | 13 kts | 103° |
| 2026-05-07 12:09 | 60.19919 | 11.10892 | 683 ft | 15 kts | 104° |
| 2026-05-07 12:09 | 60.19887 | 11.11130 | 683 ft | 20 kts | 108° |
| 2026-05-07 12:09 | 60.19847 | 11.11406 | 683 ft | 16 kts | 103° |
| 2026-05-07 12:09 | 60.19898 | 11.11558 | 686 ft | 15 kts | 17° |
| 2026-05-07 12:10 | 60.19996 | 11.11616 | 684 ft | 14 kts | 16° |
| 2026-05-07 12:10 | 60.20090 | 11.11668 | 688 ft | 14 kts | 15° |
| 2026-05-07 12:10 | 60.20172 | 11.11753 | 685 ft | 13 kts | 64° |
| 2026-05-07 12:10 | 60.20156 | 11.11927 | 688 ft | 13 kts | 105° |
| 2026-05-07 12:11 | 60.20131 | 11.12096 | 687 ft | 12 kts | 112° |
| 2026-05-07 12:11 | 60.20075 | 11.12220 | 683 ft | 12 kts | 171° |
| 2026-05-07 12:11 | 60.19992 | 11.12173 | 683 ft | 13 kts | 196° |
| 2026-05-07 12:11 | 60.19844 | 11.12088 | 687 ft | 42 kts | 196° |
| 2026-05-07 12:12 | 60.19352 | 11.11804 | 686 ft | 108 kts | 196° |
| 2026-05-07 12:12 | 60.18781 | 11.11475 | 683 ft | 149 kts | 196° |
| 2026-05-07 12:12 | 60.17252 | 11.10609 | 1272 ft | 174 kts | 195° |
| 2026-05-07 12:12 | 60.16091 | 11.10015 | 2242 ft | 173 kts | 193° |
| 2026-05-07 12:13 | 60.14873 | 11.09505 | 2991 ft | 187 kts | 195° |
| 2026-05-07 12:13 | 60.13525 | 11.08807 | 3427 ft | 213 kts | 197° |
| 2026-05-07 12:13 | 60.12025 | 11.07905 | 3829 ft | 236 kts | 197° |
| 2026-05-07 12:13 | 60.10943 | 11.07304 | 4097 ft | 252 kts | 192° |
| 2026-05-07 12:14 | 60.09156 | 11.07002 | 4843 ft | 262 kts | 183° |
| 2026-05-07 12:14 | 60.07325 | 11.06843 | 5872 ft | 260 kts | 182° |
| 2026-05-07 12:14 | 60.05505 | 11.06578 | 6747 ft | 267 kts | 193° |
| 2026-05-07 12:14 | 60.03693 | 11.05461 | 7411 ft | 275 kts | 200° |
| 2026-05-07 12:15 | 60.01897 | 11.04159 | 8381 ft | 275 kts | 201° |
| 2026-05-07 12:15 | 60.00086 | 11.02826 | 9230 ft | 281 kts | 202° |
| 2026-05-07 12:15 | 59.98234 | 11.01439 | 10010 ft | 286 kts | 204° |
| 2026-05-07 12:15 | 59.96409 | 11.00041 | 11115 ft | 276 kts | 204° |
| 2026-05-07 12:16 | 59.94590 | 10.98667 | 11775 ft | 287 kts | 204° |
| 2026-05-07 12:16 | 59.92636 | 10.97197 | 11973 ft | 313 kts | 204° |
| 2026-05-07 12:16 | 59.90518 | 10.95623 | 12183 ft | 336 kts | 203° |
| 2026-05-07 12:16 | 59.88294 | 10.93994 | 12567 ft | 351 kts | 202° |
| 2026-05-07 12:17 | 59.85983 | 10.92326 | 13298 ft | 355 kts | 203° |
| 2026-05-07 12:17 | 59.83652 | 10.90652 | 14121 ft | 357 kts | 203° |
| 2026-05-07 12:17 | 59.81306 | 10.88971 | 14826 ft | 360 kts | 203° |
| 2026-05-07 12:17 | 59.78942 | 10.87282 | 15521 ft | 363 kts | 203° |
| 2026-05-07 12:18 | 59.76556 | 10.85576 | 16212 ft | 366 kts | 204° |
| 2026-05-07 12:18 | 59.74147 | 10.83858 | 16896 ft | 369 kts | 204° |
| 2026-05-07 12:18 | 59.71721 | 10.82130 | 17574 ft | 372 kts | 204° |
| 2026-05-07 12:18 | 59.69271 | 10.80387 | 18259 ft | 375 kts | 204° |
| 2026-05-07 12:19 | 59.66804 | 10.78636 | 18841 ft | 379 kts | 205° |
| 2026-05-07 12:19 | 59.64309 | 10.76868 | 19404 ft | 382 kts | 205° |
| 2026-05-07 12:19 | 59.61797 | 10.75090 | 19974 ft | 385 kts | 205° |
| 2026-05-07 12:19 | 59.59267 | 10.73302 | 20525 ft | 388 kts | 205° |
| 2026-05-07 12:20 | 59.56709 | 10.71496 | 21057 ft | 391 kts | 205° |
| 2026-05-07 12:20 | 59.54160 | 10.69722 | 21579 ft | 396 kts | 203° |
| 2026-05-07 12:20 | 59.51467 | 10.68349 | 22115 ft | 403 kts | 198° |
| 2026-05-07 12:20 | 59.48693 | 10.67344 | 22635 ft | 408 kts | 195° |
| 2026-05-07 12:21 | 59.45870 | 10.66452 | 23126 ft | 412 kts | 195° |
| 2026-05-07 12:21 | 59.43031 | 10.65561 | 23602 ft | 415 kts | 195° |
| 2026-05-07 12:21 | 59.40177 | 10.64632 | 24020 ft | 418 kts | 196° |
| 2026-05-07 12:21 | 59.37304 | 10.63660 | 24385 ft | 420 kts | 196° |
| 2026-05-07 12:22 | 59.34409 | 10.62653 | 24766 ft | 423 kts | 197° |
| 2026-05-07 12:22 | 59.31505 | 10.61628 | 25145 ft | 426 kts | 197° |
| 2026-05-07 12:22 | 59.28574 | 10.60588 | 25530 ft | 428 kts | 197° |
| 2026-05-07 12:22 | 59.25657 | 10.59553 | 25881 ft | 432 kts | 197° |
| 2026-05-07 12:23 | 59.22694 | 10.58504 | 26228 ft | 434 kts | 197° |
| 2026-05-07 12:23 | 59.19702 | 10.57449 | 26572 ft | 437 kts | 197° |
| 2026-05-07 12:23 | 59.16701 | 10.56393 | 26910 ft | 440 kts | 197° |
| 2026-05-07 12:23 | 59.13676 | 10.55331 | 27226 ft | 442 kts | 197° |
| 2026-05-07 12:24 | 59.10632 | 10.54264 | 27550 ft | 445 kts | 197° |
| 2026-05-07 12:24 | 59.07589 | 10.53107 | 27865 ft | 444 kts | 201° |
| 2026-05-07 12:24 | 59.04591 | 10.51579 | 28162 ft | 449 kts | 198° |
| 2026-05-07 12:24 | 59.01492 | 10.50567 | 28480 ft | 454 kts | 194° |
| 2026-05-07 12:25 | 58.98379 | 10.49821 | 28775 ft | 458 kts | 193° |
| 2026-05-07 12:25 | 58.95208 | 10.49130 | 29117 ft | 459 kts | 193° |
| 2026-05-07 12:25 | 58.92023 | 10.48410 | 29540 ft | 458 kts | 193° |
| 2026-05-07 12:25 | 58.88861 | 10.47641 | 30006 ft | 456 kts | 194° |
| 2026-05-07 12:26 | 58.85722 | 10.46825 | 30398 ft | 455 kts | 194° |
| 2026-05-07 12:26 | 58.82581 | 10.45970 | 30725 ft | 455 kts | 194° |
| 2026-05-07 12:26 | 58.79447 | 10.45094 | 31053 ft | 454 kts | 194° |
| 2026-05-07 12:26 | 58.76325 | 10.44211 | 31395 ft | 453 kts | 194° |
| 2026-05-07 12:27 | 58.73238 | 10.43337 | 31746 ft | 453 kts | 194° |
| 2026-05-07 12:27 | 58.70129 | 10.42458 | 32066 ft | 452 kts | 194° |
| 2026-05-07 12:27 | 58.67007 | 10.41578 | 32375 ft | 452 kts | 194° |
| 2026-05-07 12:27 | 58.63892 | 10.40703 | 32701 ft | 452 kts | 194° |
| 2026-05-07 12:28 | 58.60783 | 10.39833 | 33020 ft | 451 kts | 194° |
| 2026-05-07 12:28 | 58.57667 | 10.38963 | 33132 ft | 455 kts | 194° |
| 2026-05-07 12:28 | 58.54516 | 10.38082 | 33127 ft | 456 kts | 194° |
| 2026-05-07 12:29 | 58.48242 | 10.36343 | 33110 ft | 452 kts | 194° |
| 2026-05-07 12:29 | 58.42044 | 10.34635 | 33116 ft | 450 kts | 194° |
| 2026-05-07 12:30 | 58.35853 | 10.32927 | 33124 ft | 450 kts | 194° |
| 2026-05-07 12:30 | 58.29688 | 10.31232 | 33124 ft | 450 kts | 194° |
| 2026-05-07 12:31 | 58.23479 | 10.29532 | 33120 ft | 451 kts | 193° |
| 2026-05-07 12:31 | 58.17263 | 10.27836 | 33125 ft | 451 kts | 193° |
| 2026-05-07 12:32 | 58.11038 | 10.26145 | 33121 ft | 452 kts | 193° |
| 2026-05-07 12:32 | 58.04802 | 10.24456 | 33125 ft | 453 kts | 193° |
| 2026-05-07 12:33 | 57.95464 | 10.21939 | 33119 ft | 453 kts | 193° |
| 2026-05-07 12:33 | 57.89218 | 10.20263 | 33120 ft | 454 kts | 193° |
| 2026-05-07 12:34 | 57.82956 | 10.18588 | 33119 ft | 454 kts | 193° |
| 2026-05-07 12:34 | 57.76699 | 10.16921 | 33107 ft | 454 kts | 192° |
| 2026-05-07 12:35 | 57.70434 | 10.15257 | 33116 ft | 455 kts | 192° |
| 2026-05-07 12:35 | 57.64193 | 10.13605 | 33117 ft | 455 kts | 192° |
| 2026-05-07 12:36 | 57.57919 | 10.11951 | 33115 ft | 455 kts | 192° |
| 2026-05-07 12:36 | 57.51642 | 10.10301 | 33107 ft | 455 kts | 192° |
| 2026-05-07 12:37 | 57.45369 | 10.08658 | 33104 ft | 455 kts | 192° |
| 2026-05-07 12:37 | 57.39092 | 10.07020 | 33102 ft | 455 kts | 192° |
| 2026-05-07 12:38 | 57.32841 | 10.05394 | 33102 ft | 455 kts | 191° |
| 2026-05-07 12:38 | 57.26562 | 10.03766 | 33097 ft | 455 kts | 191° |
| 2026-05-07 12:39 | 57.20279 | 10.02142 | 33101 ft | 455 kts | 191° |
| 2026-05-07 12:39 | 57.13995 | 10.00523 | 33102 ft | 455 kts | 191° |
| 2026-05-07 12:40 | 57.07683 | 9.99357 | 33106 ft | 458 kts | 184° |
| 2026-05-07 12:40 | 57.01301 | 9.99377 | 33097 ft | 459 kts | 182° |
| 2026-05-07 12:41 | 56.94925 | 9.99507 | 33102 ft | 459 kts | 182° |
| 2026-05-07 12:41 | 56.88541 | 9.99556 | 33094 ft | 459 kts | 182° |
| 2026-05-07 12:42 | 56.82193 | 9.99551 | 33090 ft | 459 kts | 182° |
| 2026-05-07 12:42 | 56.75798 | 9.99534 | 33087 ft | 459 kts | 182° |
| 2026-05-07 12:43 | 56.69421 | 9.99517 | 33085 ft | 459 kts | 182° |
| 2026-05-07 12:43 | 56.63030 | 9.99504 | 33087 ft | 459 kts | 182° |
| 2026-05-07 12:44 | 56.56629 | 9.99491 | 33079 ft | 459 kts | 182° |
| 2026-05-07 12:44 | 56.50240 | 9.99479 | 33082 ft | 459 kts | 182° |
| 2026-05-07 12:45 | 56.43850 | 9.99466 | 33081 ft | 459 kts | 182° |
| 2026-05-07 12:45 | 56.37464 | 9.99454 | 33083 ft | 459 kts | 181° |
| 2026-05-07 12:46 | 56.31113 | 9.99441 | 33075 ft | 459 kts | 181° |
| 2026-05-07 12:46 | 56.24726 | 9.99429 | 33079 ft | 459 kts | 181° |
| 2026-05-07 12:47 | 56.18339 | 9.99416 | 33080 ft | 458 kts | 181° |
| 2026-05-07 12:47 | 56.11962 | 9.99404 | 33081 ft | 458 kts | 181° |
| 2026-05-07 12:48 | 56.05578 | 9.99398 | 33086 ft | 458 kts | 181° |
| 2026-05-07 12:48 | 55.99205 | 9.99400 | 33086 ft | 457 kts | 181° |
| 2026-05-07 12:49 | 55.92840 | 9.99400 | 33087 ft | 457 kts | 181° |
| 2026-05-07 12:49 | 55.86475 | 9.99400 | 33095 ft | 457 kts | 181° |
| 2026-05-07 12:50 | 55.80162 | 9.99400 | 33090 ft | 457 kts | 180° |
| 2026-05-07 12:50 | 55.73800 | 9.99400 | 33107 ft | 456 kts | 180° |
| 2026-05-07 12:51 | 55.67437 | 9.99400 | 33097 ft | 457 kts | 180° |
| 2026-05-07 12:51 | 55.61085 | 9.99400 | 33099 ft | 456 kts | 180° |
| 2026-05-07 12:52 | 55.54726 | 9.99400 | 33096 ft | 456 kts | 180° |
| 2026-05-07 12:52 | 55.48374 | 9.99400 | 33103 ft | 457 kts | 180° |
| 2026-05-07 12:53 | 55.42013 | 9.99400 | 33105 ft | 457 kts | 180° |
| 2026-05-07 12:53 | 55.35648 | 9.99399 | 33102 ft | 457 kts | 180° |
| 2026-05-07 12:54 | 55.32462 | 9.99394 | 32767 ft | 460 kts | 180° |
| 2026-05-07 12:54 | 55.29319 | 9.99386 | 32383 ft | 453 kts | 180° |
| 2026-05-07 12:54 | 55.26181 | 9.99378 | 31949 ft | 448 kts | 180° |
| 2026-05-07 12:54 | 55.23080 | 9.99371 | 31501 ft | 444 kts | 180° |
| 2026-05-07 12:55 | 55.20003 | 9.99363 | 31053 ft | 440 kts | 180° |
| 2026-05-07 12:55 | 55.16949 | 9.99356 | 30619 ft | 436 kts | 180° |
| 2026-05-07 12:55 | 55.13927 | 9.99350 | 30190 ft | 433 kts | 180° |
| 2026-05-07 12:55 | 55.10925 | 9.99344 | 29668 ft | 429 kts | 180° |
| 2026-05-07 12:56 | 55.07957 | 9.99337 | 29242 ft | 424 kts | 180° |
| 2026-05-07 12:56 | 55.05027 | 9.99331 | 28788 ft | 419 kts | 180° |
| 2026-05-07 12:56 | 55.02128 | 9.99325 | 28360 ft | 414 kts | 180° |
| 2026-05-07 12:56 | 54.99255 | 9.99319 | 27918 ft | 410 kts | 180° |
| 2026-05-07 12:57 | 54.96413 | 9.99313 | 27491 ft | 406 kts | 180° |
| 2026-05-07 12:57 | 54.93590 | 9.99307 | 27047 ft | 404 kts | 180° |
| 2026-05-07 12:57 | 54.90805 | 9.99022 | 26732 ft | 397 kts | 190° |
| 2026-05-07 12:57 | 54.88124 | 9.97915 | 26497 ft | 397 kts | 195° |
| 2026-05-07 12:58 | 54.85437 | 9.96615 | 26257 ft | 403 kts | 196° |
| 2026-05-07 12:58 | 54.82727 | 9.95279 | 26000 ft | 406 kts | 196° |
| 2026-05-07 12:58 | 54.80026 | 9.93955 | 25743 ft | 402 kts | 197° |
| 2026-05-07 12:58 | 54.77343 | 9.92655 | 25494 ft | 399 kts | 196° |
| 2026-05-07 12:59 | 54.74667 | 9.91374 | 25247 ft | 396 kts | 196° |
| 2026-05-07 12:59 | 54.72016 | 9.90125 | 25003 ft | 394 kts | 195° |
| 2026-05-07 12:59 | 54.69346 | 9.89079 | 24760 ft | 392 kts | 192° |
| 2026-05-07 12:59 | 54.66671 | 9.88194 | 24514 ft | 390 kts | 191° |
| 2026-05-07 13:00 | 54.64051 | 9.87379 | 24176 ft | 386 kts | 191° |
| 2026-05-07 13:00 | 54.61420 | 9.86566 | 23798 ft | 383 kts | 191° |
| 2026-05-07 13:00 | 54.58801 | 9.85745 | 23285 ft | 382 kts | 191° |
| 2026-05-07 13:00 | 54.56193 | 9.84916 | 22786 ft | 380 kts | 192° |
| 2026-05-07 13:01 | 54.53603 | 9.84082 | 22359 ft | 377 kts | 192° |
| 2026-05-07 13:01 | 54.51037 | 9.83248 | 21937 ft | 373 kts | 192° |
| 2026-05-07 13:01 | 54.48485 | 9.82417 | 21489 ft | 371 kts | 192° |
| 2026-05-07 13:01 | 54.46806 | 9.81869 | 21208 ft | 369 kts | 192° |
| 2026-05-07 13:02 | 54.44282 | 9.81046 | 20776 ft | 367 kts | 192° |
| 2026-05-07 13:02 | 54.41775 | 9.80228 | 20354 ft | 365 kts | 192° |
| 2026-05-07 13:02 | 54.39283 | 9.79414 | 19925 ft | 363 kts | 192° |
| 2026-05-07 13:02 | 54.36811 | 9.78608 | 19498 ft | 361 kts | 192° |
| 2026-05-07 13:03 | 54.34344 | 9.77806 | 19097 ft | 359 kts | 192° |
| 2026-05-07 13:03 | 54.31895 | 9.77008 | 18719 ft | 357 kts | 192° |
| 2026-05-07 13:03 | 54.29462 | 9.76219 | 18335 ft | 355 kts | 192° |
| 2026-05-07 13:03 | 54.27044 | 9.75438 | 17907 ft | 353 kts | 192° |
| 2026-05-07 13:04 | 54.24639 | 9.74660 | 17489 ft | 350 kts | 192° |
| 2026-05-07 13:04 | 54.22278 | 9.73896 | 17068 ft | 349 kts | 192° |
| 2026-05-07 13:04 | 54.19871 | 9.73115 | 16644 ft | 347 kts | 192° |
| 2026-05-07 13:04 | 54.17539 | 9.72359 | 16257 ft | 344 kts | 192° |
| 2026-05-07 13:05 | 54.15186 | 9.71603 | 15836 ft | 343 kts | 192° |
| 2026-05-07 13:05 | 54.12844 | 9.70849 | 15428 ft | 341 kts | 191° |
| 2026-05-07 13:05 | 54.10511 | 9.70100 | 15038 ft | 339 kts | 192° |
| 2026-05-07 13:05 | 54.08201 | 9.69358 | 14668 ft | 337 kts | 192° |
| 2026-05-07 13:06 | 54.05900 | 9.68627 | 14283 ft | 335 kts | 191° |
| 2026-05-07 13:06 | 54.03609 | 9.67894 | 13914 ft | 333 kts | 191° |
| 2026-05-07 13:06 | 54.01336 | 9.67165 | 13497 ft | 332 kts | 191° |
| 2026-05-07 13:06 | 53.99077 | 9.66441 | 13086 ft | 330 kts | 191° |
| 2026-05-07 13:07 | 53.96821 | 9.65719 | 12692 ft | 328 kts | 191° |
| 2026-05-07 13:07 | 53.94584 | 9.65005 | 12300 ft | 326 kts | 191° |
| 2026-05-07 13:07 | 53.92358 | 9.64295 | 11923 ft | 324 kts | 191° |
| 2026-05-07 13:07 | 53.90166 | 9.63597 | 11787 ft | 314 kts | 191° |
| 2026-05-07 13:08 | 53.88065 | 9.62929 | 11663 ft | 301 kts | 191° |
| 2026-05-07 13:08 | 53.86042 | 9.62287 | 11576 ft | 291 kts | 191° |
| 2026-05-07 13:08 | 53.84104 | 9.61672 | 11442 ft | 284 kts | 191° |
| 2026-05-07 13:08 | 53.82177 | 9.61061 | 11213 ft | 280 kts | 191° |
| 2026-05-07 13:09 | 53.80263 | 9.60455 | 10914 ft | 279 kts | 190° |
| 2026-05-07 13:09 | 53.78352 | 9.59850 | 10608 ft | 279 kts | 190° |
| 2026-05-07 13:09 | 53.76447 | 9.59247 | 10344 ft | 278 kts | 190° |
| 2026-05-07 13:09 | 53.74551 | 9.58648 | 10073 ft | 276 kts | 190° |
| 2026-05-07 13:10 | 53.72663 | 9.58052 | 9786 ft | 276 kts | 190° |
| 2026-05-07 13:10 | 53.70783 | 9.57461 | 9471 ft | 273 kts | 189° |
| 2026-05-07 13:10 | 53.68917 | 9.56874 | 9045 ft | 273 kts | 189° |
| 2026-05-07 13:10 | 53.67049 | 9.56285 | 8630 ft | 273 kts | 189° |
| 2026-05-07 13:11 | 53.65191 | 9.55698 | 8253 ft | 271 kts | 188° |
| 2026-05-07 13:11 | 53.63344 | 9.55118 | 7829 ft | 270 kts | 188° |
| 2026-05-07 13:11 | 53.61515 | 9.54544 | 7427 ft | 270 kts | 188° |
| 2026-05-07 13:11 | 53.59652 | 9.53960 | 7050 ft | 268 kts | 188° |
| 2026-05-07 13:12 | 53.57824 | 9.53384 | 6704 ft | 266 kts | 188° |
| 2026-05-07 13:12 | 53.56027 | 9.52824 | 6347 ft | 265 kts | 188° |
| 2026-05-07 13:12 | 53.54221 | 9.52261 | 5953 ft | 263 kts | 188° |
| 2026-05-07 13:12 | 53.52417 | 9.51991 | 5546 ft | 259 kts | 168° |
| 2026-05-07 13:13 | 53.50794 | 9.53118 | 5268 ft | 251 kts | 139° |
| 2026-05-07 13:13 | 53.49692 | 9.55299 | 5091 ft | 242 kts | 115° |
| 2026-05-07 13:13 | 53.49170 | 9.57899 | 4960 ft | 228 kts | 101° |
| 2026-05-07 13:13 | 53.48861 | 9.60465 | 4805 ft | 222 kts | 99° |
| 2026-05-07 13:14 | 53.48578 | 9.62989 | 4583 ft | 217 kts | 99° |
| 2026-05-07 13:14 | 53.48294 | 9.65455 | 4326 ft | 212 kts | 99° |
| 2026-05-07 13:14 | 53.48179 | 9.67860 | 4057 ft | 204 kts | 78° |
| 2026-05-07 13:14 | 53.48704 | 9.70004 | 3852 ft | 196 kts | 57° |
| 2026-05-07 13:15 | 53.49562 | 9.71748 | 3631 ft | 191 kts | 48° |
| 2026-05-07 13:15 | 53.50443 | 9.73336 | 3449 ft | 186 kts | 49° |
| 2026-05-07 13:15 | 53.51276 | 9.74941 | 3355 ft | 177 kts | 51° |
| 2026-05-07 13:15 | 53.52081 | 9.76551 | 3137 ft | 183 kts | 52° |
| 2026-05-07 13:16 | 53.52888 | 9.78188 | 2917 ft | 183 kts | 52° |
| 2026-05-07 13:16 | 53.53698 | 9.79835 | 2641 ft | 183 kts | 52° |
| 2026-05-07 13:16 | 53.54493 | 9.81457 | 2388 ft | 177 kts | 52° |
| 2026-05-07 13:16 | 53.55257 | 9.83009 | 2172 ft | 169 kts | 52° |
| 2026-05-07 13:17 | 53.55990 | 9.84509 | 1943 ft | 161 kts | 52° |
| 2026-05-07 13:17 | 53.56693 | 9.85930 | 1751 ft | 155 kts | 53° |
| 2026-05-07 13:17 | 53.57351 | 9.87276 | 1621 ft | 142 kts | 51° |
| 2026-05-07 13:17 | 53.58002 | 9.88600 | 1351 ft | 149 kts | 52° |
| 2026-05-07 13:18 | 53.58644 | 9.89915 | 1133 ft | 137 kts | 51° |
| 2026-05-07 13:18 | 53.59260 | 9.91158 | 925 ft | 140 kts | 52° |
| 2026-05-07 13:18 | 53.59883 | 9.92422 | 737 ft | 139 kts | 51° |
| 2026-05-07 13:18 | 53.60496 | 9.93671 | 541 ft | 138 kts | 51° |
| 2026-05-07 13:19 | 53.61117 | 9.94931 | 400 ft | 142 kts | 51° |
| 2026-05-07 13:19 | 53.61752 | 9.96215 | 147 ft | 141 kts | 51° |
| 2026-05-07 13:19 | 53.62360 | 9.97450 | 40 ft | 130 kts | 51° |
| 2026-05-07 13:19 | 53.62856 | 9.98461 | 43 ft | 91 kts | 51° |
| 2026-05-07 13:20 | 53.63172 | 9.99097 | 45 ft | 47 kts | 50° |
| 2026-05-07 13:20 | 53.63290 | 9.99410 | 45 ft | 21 kts | 78° |
| 2026-05-07 13:20 | 53.63292 | 9.99515 | 46 ft | 5 kts | 96° |
| 2026-05-07 13:20 | 53.63289 | 9.99550 | 46 ft | 2 kts | 98° |
| 2026-05-07 13:21 | 53.63288 | 9.99558 | 47 ft | 0 kts | 98° |
| 2026-05-07 13:21 | 53.63287 | 9.99567 | 47 ft | 2 kts | 98° |
| 2026-05-07 13:21 | 53.63284 | 9.99602 | 46 ft | 3 kts | 99° |
| 2026-05-07 13:21 | 53.63278 | 9.99647 | 47 ft | 4 kts | 102° |
| 2026-05-07 13:22 | 53.63270 | 9.99700 | 44 ft | 6 kts | 115° |
| 2026-05-07 13:22 | 53.63230 | 9.99755 | 47 ft | 9 kts | 152° |
| 2026-05-07 13:22 | 53.63170 | 9.99808 | 47 ft | 11 kts | 152° |
| 2026-05-07 13:22 | 53.63091 | 9.99877 | 47 ft | 15 kts | 153° |
| 2026-05-07 13:23 | 53.62991 | 9.99961 | 46 ft | 17 kts | 153° |
| 2026-05-07 13:23 | 53.62886 | 10.00042 | 47 ft | 16 kts | 164° |
| 2026-05-07 13:23 | 53.62786 | 10.00123 | 47 ft | 16 kts | 152° |
| 2026-05-07 13:23 | 53.62745 | 10.00178 | 47 ft | 2 kts | 77° |
| 2026-05-07 13:24 | 53.62749 | 10.00199 | 47 ft | 2 kts | 69° |
| 2026-05-07 13:24 | 53.62760 | 10.00234 | 45 ft | 4 kts | 59° |
| 2026-05-07 13:24 | 53.62768 | 10.00259 | 47 ft | 2 kts | 63° |
| 2026-05-07 13:24 | 53.62773 | 10.00274 | 47 ft | 0 kts | 63° |